Time;durP1;ratioP1;P1;durP2;ratioP2;P2;SDS_P1;SDS_P2;PMS_P1;PMS_P2;Temp;Humidity;BMP_temperature;BMP_pressure;BME280_temperature;BME280_humidity;BME280_pressure;Samples;Min_cycle;Max_cycle;Signal;HPM_P1;HPM_P2
2023/09/23 00:01:53;;;;;;;14.93;5.97;;;;;;;22.13;48.60;93960.72;5014835;28;20386;-78
2023/09/23 00:04:18;;;;;;;15.52;4.97;;;;;;;22.29;48.50;93982.09;5014815;28;20073;-78
2023/09/23 00:06:44;;;;;;;17.27;5.55;;;;;;;22.17;48.74;93971.56;5016991;28;20048;-79
2023/09/23 00:09:10;;;;;;;12.45;5.15;;;;;;;22.23;48.94;93991.75;5015060;28;20042;-79
2023/09/23 00:11:37;;;;;;;13.23;5.63;;;;;;;22.19;48.85;93980.84;5015733;28;20072;-78
2023/09/23 00:14:04;;;;;;;14.70;5.63;;;;;;;22.19;48.85;93983.56;5015299;28;20095;-77
2023/09/23 00:16:29;;;;;;;14.77;5.60;;;;;;;22.03;48.74;93957.97;5017196;28;20025;-77
2023/09/23 00:18:57;;;;;;;16.60;5.97;;;;;;;22.15;49.06;93982.00;5015350;28;20615;-77
2023/09/23 00:21:22;;;;;;;19.52;6.60;;;;;;;22.16;48.96;93989.75;5015744;28;20053;-79
2023/09/23 00:23:48;;;;;;;14.48;5.63;;;;;;;22.04;48.79;93970.38;5016246;28;20029;-78
2023/09/23 00:26:17;;;;;;;19.25;5.90;;;;;;;22.12;49.18;93988.19;5016040;28;20804;-78
2023/09/23 00:28:45;;;;;;;12.23;5.03;;;;;;;22.00;48.98;93969.56;5016029;28;20056;-78
2023/09/23 00:31:14;;;;;;;12.07;5.82;;;;;;;22.10;49.10;93991.25;5015670;28;20029;-78
2023/09/23 00:33:40;;;;;;;10.93;5.55;;;;;;;22.07;48.86;93989.31;5016211;28;20033;-79
2023/09/23 00:36:07;;;;;;;13.07;5.13;;;;;;;22.08;48.48;93988.19;5012252;28;20495;-78
2023/09/23 00:38:33;;;;;;;10.35;4.90;;;;;;;21.93;48.54;93966.84;5014296;28;20038;-79
2023/09/23 00:40:58;;;;;;;14.15;5.47;;;;;;;22.10;48.31;93993.97;5015265;28;20037;-79
2023/09/23 00:43:24;;;;;;;13.05;5.38;;;;;;;22.00;48.32;93978.44;5013902;28;20033;-78
2023/09/23 00:45:52;;;;;;;16.20;5.20;;;;;;;22.05;48.46;93985.44;5016720;28;20036;-79
2023/09/23 00:48:21;;;;;;;9.32;5.18;;;;;;;22.02;48.66;93984.28;5014620;28;20041;-78
2023/09/23 00:50:52;;;;;;;15.75;5.78;;;;;;;22.00;48.62;93980.41;5015844;28;20026;-78
2023/09/23 00:53:17;;;;;;;15.80;5.93;;;;;;;22.05;48.98;93978.09;5041710;28;20098;-78
2023/09/23 00:55:52;;;;;;;13.95;5.30;;;;;;;22.01;48.85;93977.31;5040407;28;20079;-78
2023/09/23 00:58:22;;;;;;;12.55;4.63;;;;;;;21.98;49.09;93978.06;5040002;28;20029;-78
2023/09/23 01:00:49;;;;;;;10.95;4.53;;;;;;;22.01;48.85;93971.88;5043011;28;20099;-77
2023/09/23 01:03:16;;;;;;;24.05;5.80;;;;;;;21.97;48.65;93960.28;5039355;28;20059;-77
2023/09/23 01:05:43;;;;;;;9.45;4.53;;;;;;;21.88;49.04;93951.72;5043519;28;20456;-78
2023/09/23 01:08:32;;;;;;;10.63;5.00;;;;;;;21.95;49.11;93961.81;5019431;28;20045;-78
2023/09/23 01:10:57;;;;;;;9.77;4.85;;;;;;;21.84;48.84;93956.38;5020293;28;20033;-78
2023/09/23 01:13:29;;;;;;;9.77;4.60;;;;;;;21.82;48.88;93964.84;5018793;28;20029;-79
2023/09/23 01:15:55;;;;;;;14.80;5.10;;;;;;;21.88;49.16;93973.41;5019995;28;20077;-78
2023/09/23 01:18:28;;;;;;;10.45;6.00;;;;;;;21.91;49.10;93977.25;5021755;28;20237;-78
2023/09/23 01:20:58;;;;;;;14.90;5.07;;;;;;;21.78;49.10;93971.41;5021640;28;20073;-78
2023/09/23 01:23:24;;;;;;;14.02;5.30;;;;;;;21.79;48.72;93965.63;5019545;28;20032;-78
2023/09/23 01:25:50;;;;;;;12.43;3.88;;;;;;;21.85;48.87;93971.47;5021202;28;20611;-79
2023/09/23 01:28:16;;;;;;;17.63;5.15;;;;;;;21.75;48.58;93958.66;5020032;28;20044;-79
2023/09/23 01:30:45;;;;;;;14.18;5.38;;;;;;;21.80;49.48;93971.81;5019636;28;20037;-78
2023/09/23 01:33:12;;;;;;;13.68;5.70;;;;;;;21.77;48.80;93962.50;5020666;28;20401;-77
2023/09/23 01:35:38;;;;;;;11.93;5.32;;;;;;;21.66;49.01;93955.47;5020725;28;20548;-77
2023/09/23 01:38:07;;;;;;;20.65;6.47;;;;;;;21.71;48.82;93974.84;5035331;28;20029;-80
2023/09/23 01:40:36;;;;;;;13.95;5.55;;;;;;;21.54;48.94;93956.56;5020648;28;20394;-78
2023/09/23 01:43:02;;;;;;;15.13;5.35;;;;;;;21.67;48.96;93974.06;5018483;28;20517;-78
2023/09/23 01:45:28;;;;;;;11.68;4.45;;;;;;;21.62;49.08;93973.66;5012039;28;20505;-78
2023/09/23 01:47:56;;;;;;;14.07;4.80;;;;;;;21.48;49.15;93955.38;5019401;28;20028;-78
2023/09/23 01:50:23;;;;;;;14.98;5.63;;;;;;;21.59;49.30;93977.13;5011481;28;20032;-78
2023/09/23 01:52:48;;;;;;;12.88;5.35;;;;;;;21.64;49.07;93974.84;5020140;28;20091;-77
2023/09/23 01:55:16;;;;;;;15.70;6.38;;;;;;;21.60;49.32;93960.50;5018742;28;20045;-79
2023/09/23 01:57:42;;;;;;;11.90;4.75;;;;;;;21.59;49.11;93956.25;5020369;28;20167;-78
2023/09/23 02:00:15;;;;;;;14.27;5.35;;;;;;;21.56;49.41;93972.47;5019512;28;20040;-77
2023/09/23 02:02:40;;;;;;;10.40;4.65;;;;;;;21.48;49.55;93955.38;5010496;28;20302;-79
2023/09/23 02:05:07;;;;;;;14.05;4.75;;;;;;;21.55;49.64;93965.50;5021125;28;20044;-79
2023/09/23 02:07:32;;;;;;;15.18;5.25;;;;;;;21.55;49.64;93962.78;5019088;28;20143;-77
2023/09/23 02:09:57;;;;;;;14.63;5.53;;;;;;;21.51;49.63;93960.03;5020536;28;20124;-79
2023/09/23 02:12:23;;;;;;;13.57;4.85;;;;;;;21.48;49.32;93960.00;5017852;28;20107;-78
2023/09/23 02:14:48;;;;;;;15.60;5.88;;;;;;;21.45;48.94;93959.63;5016472;28;20037;-79
2023/09/23 02:17:15;;;;;;;16.20;5.15;;;;;;;21.46;49.65;93968.53;5018632;28;20440;-77
2023/09/23 02:19:40;;;;;;;19.85;5.78;;;;;;;21.53;49.64;93978.59;5017769;28;20030;-77
2023/09/23 02:22:06;;;;;;;13.27;4.72;;;;;;;21.56;49.10;93977.88;5018601;28;20144;-79
2023/09/23 02:24:37;;;;;;;16.42;5.13;;;;;;;21.51;49.16;93978.97;5020523;28;20048;-78
2023/09/23 02:27:03;;;;;;;19.15;5.25;;;;;;;21.46;49.36;93974.69;5019219;28;20764;-78
2023/09/23 02:29:30;;;;;;;15.27;4.85;;;;;;;21.55;48.61;93984.44;5017312;28;20025;-77
2023/09/23 02:31:56;;;;;;;10.93;4.78;;;;;;;21.49;48.96;93977.81;5017650;28;20499;-77
2023/09/23 02:34:22;;;;;;;11.55;4.10;;;;;;;21.51;49.15;93989.03;5019254;28;20124;-79
2023/09/23 02:36:50;;;;;;;22.67;5.05;;;;;;;21.45;48.84;93988.63;5017086;28;20033;-78
2023/09/23 02:39:19;;;;;;;13.05;4.85;;;;;;;21.55;48.70;93998.75;5020585;28;20474;-77
2023/09/23 02:41:49;;;;;;;14.68;5.85;;;;;;;21.45;49.11;93988.63;5017547;28;20021;-77
2023/09/23 02:44:18;;;;;;;11.38;4.38;;;;;;;21.45;48.88;93989.38;5014961;28;20060;-79
2023/09/23 02:46:47;;;;;;;16.70;4.95;;;;;;;21.45;49.32;93989.38;5017740;28;20521;-78
2023/09/23 02:49:14;;;;;;;17.15;5.63;;;;;;;21.37;49.07;93995.13;5018550;28;20041;-78
2023/09/23 02:51:41;;;;;;;13.32;5.15;;;;;;;21.25;49.42;93990.03;5018323;28;20041;-78
2023/09/23 02:54:08;;;;;;;11.80;5.70;;;;;;;21.30;49.65;93998.56;5018683;28;20052;-78
2023/09/23 02:56:36;;;;;;;12.00;5.45;;;;;;;21.34;49.70;93999.38;5020162;28;20036;-77
2023/09/23 02:59:13;;;;;;;16.13;5.15;;;;;;;21.29;49.72;94005.13;5019089;28;20037;-78
2023/09/23 03:01:45;;;;;;;15.18;5.45;;;;;;;21.26;50.00;94008.59;5019341;28;20076;-78
2023/09/23 03:04:19;;;;;;;14.20;5.63;;;;;;;21.25;49.96;93990.81;5018156;28;20192;-76
2023/09/23 03:06:55;;;;;;;17.15;5.47;;;;;;;21.26;50.04;94008.59;5018271;28;20080;-77
2023/09/23 03:09:31;;;;;;;10.45;4.53;;;;;;;21.18;49.82;94001.56;5017069;28;20055;-77
2023/09/23 03:12:00;;;;;;;17.27;5.82;;;;;;;21.18;49.85;93998.84;5019590;28;20132;-78
2023/09/23 03:14:36;;;;;;;14.68;5.45;;;;;;;21.15;50.17;93994.19;5017342;28;20036;-77
2023/09/23 03:17:03;;;;;;;16.45;5.93;;;;;;;21.25;50.01;94006.25;5015543;28;20134;-77
2023/09/23 03:19:31;;;;;;;11.70;5.45;;;;;;;21.14;50.08;93995.34;5009684;28;20523;-77
2023/09/23 03:21:57;;;;;;;12.18;5.80;;;;;;;21.21;50.15;94006.22;5016302;28;20642;-77
2023/09/23 03:24:28;;;;;;;15.13;6.15;;;;;;;21.13;49.94;93999.19;5017872;28;20033;-77
2023/09/23 03:27:02;;;;;;;22.63;6.18;;;;;;;21.07;49.88;93987.16;5011074;28;20488;-77
2023/09/23 03:29:32;;;;;;;12.13;5.25;;;;;;;21.17;50.07;94012.78;5018037;28;20009;-78
2023/09/23 03:31:59;;;;;;;15.60;5.90;;;;;;;21.09;50.23;94006.50;5018725;28;20035;-76
2023/09/23 03:34:26;;;;;;;11.85;5.90;;;;;;;21.05;50.21;93999.53;5017675;28;20041;-76
2023/09/23 03:36:53;;;;;;;22.52;5.57;;;;;;;21.02;50.06;94001.81;5018484;28;20215;-77
2023/09/23 03:39:19;;;;;;;12.40;5.50;;;;;;;21.00;50.26;94000.66;5018081;28;20065;-77
2023/09/23 03:41:46;;;;;;;13.43;6.45;;;;;;;20.99;50.37;93996.38;5019361;28;20024;-77
2023/09/23 03:44:14;;;;;;;14.20;5.70;;;;;;;21.08;50.21;94006.88;5017555;28;20026;-76
2023/09/23 03:46:40;;;;;;;15.38;4.68;;;;;;;21.03;50.02;94005.31;5018848;28;20055;-77
2023/09/23 03:49:06;;;;;;;15.13;5.13;;;;;;;21.03;49.71;94005.31;5018919;28;20033;-76
2023/09/23 03:51:31;;;;;;;12.55;5.03;;;;;;;20.99;49.86;94007.97;5018525;28;20044;-78
2023/09/23 03:53:56;;;;;;;11.52;4.78;;;;;;;20.90;50.34;93987.81;5019178;28;20029;-78
2023/09/23 03:56:24;;;;;;;16.45;5.97;;;;;;;20.98;50.05;94002.94;5018343;28;20416;-77
2023/09/23 03:58:55;;;;;;;17.75;6.40;;;;;;;21.00;49.97;94012.25;5016734;28;20056;-77
2023/09/23 04:01:22;;;;;;;13.32;5.65;;;;;;;20.96;50.37;94019.56;5018537;28;20142;-77
2023/09/23 04:03:48;;;;;;;15.10;5.78;;;;;;;20.89;49.94;93997.06;5017917;28;20030;-78
2023/09/23 04:06:13;;;;;;;19.15;5.30;;;;;;;20.94;50.08;94018.34;5016215;28;20088;-76
2023/09/23 04:08:38;;;;;;;13.98;5.25;;;;;;;20.84;50.05;94002.78;5016894;28;20045;-77
2023/09/23 04:11:05;;;;;;;10.95;5.18;;;;;;;20.78;50.44;94015.09;5019474;28;20038;-77
2023/09/23 04:13:31;;;;;;;16.33;5.40;;;;;;;20.81;50.44;94015.13;5016037;28;20044;-77
2023/09/23 04:16:00;;;;;;;16.48;5.82;;;;;;;20.77;50.25;94029.78;5017885;28;20030;-77
2023/09/23 04:18:27;;;;;;;17.65;5.28;;;;;;;20.77;50.14;94025.16;5017361;28;20064;-77
2023/09/23 04:20:53;;;;;;;14.70;5.20;;;;;;;20.79;50.39;94035.56;5019633;28;20058;-78
2023/09/23 04:23:19;;;;;;;15.70;5.22;;;;;;;20.76;50.40;94022.81;5017456;28;20036;-78
2023/09/23 04:25:44;;;;;;;13.52;6.15;;;;;;;20.80;50.63;94037.91;5023272;28;20042;-78
2023/09/23 04:28:10;;;;;;;9.32;5.28;;;;;;;20.67;50.71;94025.03;5010759;28;20038;-78
2023/09/23 04:30:35;;;;;;;16.08;5.03;;;;;;;20.77;50.56;94043.28;5021626;28;20504;-76
2023/09/23 04:33:02;;;;;;;18.17;6.43;;;;;;;20.62;50.54;94017.28;5020349;28;20017;-78
2023/09/23 04:35:29;;;;;;;14.20;5.25;;;;;;;20.69;50.57;94039.72;5020992;28;20122;-77
2023/09/23 04:37:55;;;;;;;18.02;5.93;;;;;;;20.70;50.90;94045.91;5020714;28;20038;-77
2023/09/23 04:40:20;;;;;;;12.82;4.93;;;;;;;20.75;50.88;94067.19;5019474;28;20071;-78
2023/09/23 04:42:48;;;;;;;21.58;6.22;;;;;;;20.69;50.96;94065.97;5022637;28;20044;-77
2023/09/23 04:45:14;;;;;;;12.10;4.95;;;;;;;20.83;50.88;94063.41;5020476;28;20034;-77
2023/09/23 04:47:47;;;;;;;19.83;6.68;;;;;;;20.60;50.83;94048.13;5020628;28;20068;-77
2023/09/23 04:50:13;;;;;;;17.00;5.65;;;;;;;20.79;51.12;94079.59;5019247;28;20034;-78
2023/09/23 04:52:39;;;;;;;14.63;5.32;;;;;;;20.79;51.08;94065.31;5021975;28;20084;-78
2023/09/23 04:55:06;;;;;;;12.82;5.70;;;;;;;20.61;51.53;94032.69;5029804;28;20033;-78
2023/09/23 04:57:32;;;;;;;13.63;5.22;;;;;;;20.79;51.49;94059.91;5041793;28;20045;-76
2023/09/23 04:59:59;;;;;;;11.60;4.57;;;;;;;20.73;52.41;94056.00;5041767;28;20029;-77
2023/09/23 05:02:25;;;;;;;16.40;6.45;;;;;;;20.85;52.27;94070.00;5040065;28;20082;-78
2023/09/23 05:04:53;;;;;;;20.02;6.82;;;;;;;20.79;52.08;94066.09;5042546;28;20041;-76
2023/09/23 05:07:19;;;;;;;17.13;7.57;;;;;;;20.91;52.23;94084.00;5039394;28;20045;-78
2023/09/23 05:09:45;;;;;;;19.20;6.32;;;;;;;20.84;51.82;94067.66;5041812;28;20914;-78
2023/09/23 05:12:11;;;;;;;16.75;6.57;;;;;;;20.87;52.53;94066.97;5037296;28;20029;-77
2023/09/23 05:14:36;;;;;;;20.35;8.13;;;;;;;20.90;51.80;94067.00;5041119;28;20475;-77
2023/09/23 05:17:04;;;;;;;15.18;7.47;;;;;;;20.93;52.43;94055.44;5040098;28;20507;-77
2023/09/23 05:19:31;;;;;;;24.38;8.18;;;;;;;21.03;52.45;94064.78;5040906;28;20708;-77
2023/09/23 05:21:57;;;;;;;17.50;7.05;;;;;;;21.06;53.01;94069.47;5038831;28;20082;-78
2023/09/23 05:24:26;;;;;;;18.13;7.45;;;;;;;21.23;52.56;94092.38;5035956;28;20033;-77
2023/09/23 05:26:54;;;;;;;19.85;8.57;;;;;;;21.10;52.63;94064.84;5019229;28;20036;-77
2023/09/23 05:29:20;;;;;;;20.08;7.30;;;;;;;21.20;52.29;94075.00;5021868;28;20301;-78
2023/09/23 05:31:46;;;;;;;22.23;9.13;;;;;;;21.15;52.43;94061.81;5018622;28;20033;-77
2023/09/23 05:34:11;;;;;;;18.95;7.72;;;;;;;21.18;52.47;94055.66;5020951;28;20580;-76
2023/09/23 05:36:36;;;;;;;20.52;8.45;;;;;;;21.26;52.68;94057.28;5019488;28;20083;-78
2023/09/23 05:39:08;;;;;;;18.10;7.55;;;;;;;21.37;52.86;94065.44;5021525;28;20513;-78
2023/09/23 05:41:33;;;;;;;23.05;8.00;;;;;;;21.42;52.56;94063.19;5019815;28;20061;-77
2023/09/23 05:43:59;;;;;;;23.17;7.72;;;;;;;21.34;52.44;94041.88;5022402;28;20124;-77
2023/09/23 05:46:25;;;;;;;14.60;5.88;;;;;;;21.49;53.22;94069.81;5018798;28;20030;-78
2023/09/23 05:48:51;;;;;;;22.55;7.15;;;;;;;21.41;52.90;94045.38;5020738;28;20144;-77
2023/09/23 05:51:16;;;;;;;19.85;7.55;;;;;;;21.66;52.57;94069.16;5018769;28;20053;-76
2023/09/23 05:53:43;;;;;;;17.20;6.82;;;;;;;21.79;52.09;94071.22;5021767;28;20025;-78
2023/09/23 05:56:08;;;;;;;27.15;8.68;;;;;;;21.78;52.29;94066.94;5019977;28;20034;-77
2023/09/23 05:58:34;;;;;;;23.50;7.20;;;;;;;21.88;51.69;94087.09;5021081;28;20046;-77
2023/09/23 06:00:59;;;;;;;19.30;7.43;;;;;;;21.92;52.50;94087.13;5018681;28;20401;-77
2023/09/23 06:03:25;;;;;;;18.10;7.13;;;;;;;21.89;52.52;94072.41;5021049;28;20046;-77
2023/09/23 06:05:50;;;;;;;17.20;8.65;;;;;;;21.99;52.70;94081.75;5019157;28;20078;-77
2023/09/23 06:08:15;;;;;;;19.42;8.13;;;;;;;22.02;52.52;94081.78;5020688;28;20036;-77
2023/09/23 06:10:41;;;;;;;22.45;8.00;;;;;;;22.16;52.08;94091.88;5020844;28;20159;-78
2023/09/23 06:13:07;;;;;;;19.33;8.90;;;;;;;22.13;51.98;94069.06;5020203;28;20033;-77
2023/09/23 06:15:32;;;;;;;17.02;7.93;;;;;;;22.23;52.04;94081.91;5017856;28;20085;-77
2023/09/23 06:17:58;;;;;;;15.90;6.70;;;;;;;22.34;51.60;94111.00;5020628;28;20473;-77
2023/09/23 06:20:23;;;;;;;19.40;7.47;;;;;;;22.23;52.26;94092.75;5016833;28;20491;-77
2023/09/23 06:22:50;;;;;;;20.80;7.18;;;;;;;22.38;51.91;94103.66;5019227;28;20041;-77
2023/09/23 06:25:15;;;;;;;19.15;6.85;;;;;;;22.32;51.37;94083.50;5018796;28;20040;-77
2023/09/23 06:27:42;;;;;;;25.17;7.30;;;;;;;22.50;50.91;94104.06;5017313;28;20033;-77
2023/09/23 06:30:08;;;;;;;15.63;7.32;;;;;;;22.51;50.28;94083.19;5018236;28;20565;-76
2023/09/23 06:32:33;;;;;;;25.30;7.53;;;;;;;22.72;48.63;94102.22;5020484;28;20051;-76
2023/09/23 06:34:59;;;;;;;24.13;6.10;;;;;;;22.69;48.25;94097.56;5018228;28;20539;-77
2023/09/23 06:37:24;;;;;;;14.95;6.80;;;;;;;22.67;48.91;94094.47;5014624;28;20496;-76
2023/09/23 06:39:50;;;;;;;15.20;6.57;;;;;;;22.68;49.53;94102.19;5018504;28;20037;-77
2023/09/23 06:42:15;;;;;;;17.50;7.95;;;;;;;22.63;49.49;94109.94;5014030;28;20084;-76
2023/09/23 06:44:42;;;;;;;16.20;7.30;;;;;;;22.72;49.82;94107.66;5014960;28;20029;-76
2023/09/23 06:47:08;;;;;;;18.23;7.50;;;;;;;22.88;49.97;94116.22;5010407;28;20383;-77
2023/09/23 06:49:34;;;;;;;22.52;7.28;;;;;;;22.88;49.43;94105.38;5016604;28;20042;-76
2023/09/23 06:51:59;;;;;;;15.82;6.80;;;;;;;23.00;49.60;94121.31;5016531;28;20037;-75
2023/09/23 06:54:24;;;;;;;20.73;7.80;;;;;;;22.87;49.62;94097.66;5013769;28;20037;-77
2023/09/23 06:56:53;;;;;;;18.08;7.80;;;;;;;22.90;49.55;94097.66;5016830;28;20026;-77
2023/09/23 06:59:18;;;;;;;18.38;7.47;;;;;;;22.95;48.80;94116.25;5015325;28;20033;-77
2023/09/23 07:01:44;;;;;;;18.92;9.20;;;;;;;22.87;49.76;94103.84;5017655;28;20042;-77
2023/09/23 07:04:09;;;;;;;24.65;8.60;;;;;;;22.97;49.21;94124.03;5005107;28;20484;-76
2023/09/23 07:06:35;;;;;;;15.13;7.63;;;;;;;23.23;48.86;94131.03;5016389;28;20026;-77
2023/09/23 07:09:07;;;;;;;28.02;8.05;;;;;;;23.21;49.02;94139.56;5009833;28;20409;-77
2023/09/23 07:11:33;;;;;;;17.13;7.78;;;;;;;23.26;49.15;94130.28;5014594;28;20064;-77
2023/09/23 07:14:00;;;;;;;16.13;7.60;;;;;;;23.23;48.27;94125.59;5010027;28;20109;-76
2023/09/23 07:16:29;;;;;;;18.10;7.15;;;;;;;23.30;48.83;94128.34;5005856;28;20034;-76
2023/09/23 07:18:54;;;;;;;20.38;8.02;;;;;;;23.30;48.01;94136.47;5012018;28;20060;-77
2023/09/23 07:21:20;;;;;;;21.02;8.38;;;;;;;23.30;48.56;94139.97;5001507;28;20042;-77
2023/09/23 07:23:45;;;;;;;19.40;7.38;;;;;;;23.35;49.39;94125.25;5003183;28;20026;-75
2023/09/23 07:26:23;;;;;;;19.85;8.27;;;;;;;23.21;49.17;94095.38;4988051;28;20042;-77
2023/09/23 07:28:52;;;;;;;18.73;7.72;;;;;;;23.32;49.69;94107.78;4982632;28;20062;-78
2023/09/23 07:31:18;;;;;;;17.10;7.10;;;;;;;23.40;49.26;94125.63;5008229;28;20072;-77
2023/09/23 07:33:45;;;;;;;18.13;7.28;;;;;;;23.50;47.91;94129.53;4989685;28;20619;-76
2023/09/23 07:36:12;;;;;;;20.13;8.30;;;;;;;23.51;48.53;94131.84;4998060;28;20103;-77
2023/09/23 07:38:38;;;;;;;19.40;8.55;;;;;;;23.44;48.43;94128.34;5007937;28;20033;-78
2023/09/23 07:41:04;;;;;;;21.45;7.57;;;;;;;23.33;48.58;94114.75;5009577;28;20493;-77
2023/09/23 07:43:30;;;;;;;20.77;7.53;;;;;;;23.49;48.49;94114.41;5008646;28;20044;-76
2023/09/23 07:45:56;;;;;;;23.30;7.57;;;;;;;23.59;48.37;94121.78;5003247;28;20439;-77
2023/09/23 07:48:21;;;;;;;19.75;6.97;;;;;;;23.66;46.12;94121.03;5005732;28;20037;-77
2023/09/23 07:50:49;;;;;;;16.85;7.50;;;;;;;23.63;47.36;94119.84;5008236;28;21021;-78
2023/09/23 07:53:20;;;;;;;25.08;7.72;;;;;;;23.65;46.64;94122.19;4999324;28;20041;-77
2023/09/23 07:55:46;;;;;;;17.10;7.03;;;;;;;23.73;46.21;94127.22;5003514;28;20054;-76
2023/09/23 07:58:12;;;;;;;20.25;6.43;;;;;;;23.76;45.33;94126.41;5006946;28;20135;-77
2023/09/23 08:00:37;;;;;;;15.13;6.72;;;;;;;23.75;44.83;94114.03;5005151;28;20405;-77
2023/09/23 08:03:06;;;;;;;19.38;7.30;;;;;;;23.87;45.10;94131.84;5010065;28;20030;-77
2023/09/23 08:05:33;;;;;;;19.38;6.85;;;;;;;23.84;46.03;94111.69;5012917;28;20152;-78
2023/09/23 08:07:59;;;;;;;17.73;7.45;;;;;;;23.90;45.23;94115.56;5003375;28;20505;-78
2023/09/23 08:10:24;;;;;;;23.65;6.65;;;;;;;23.74;45.12;94107.03;5020865;28;20086;-78
2023/09/23 08:12:51;;;;;;;20.17;7.65;;;;;;;23.92;46.20;94110.50;5018793;28;20315;-78
2023/09/23 08:15:23;;;;;;;28.33;7.03;;;;;;;23.95;45.06;94096.13;5008354;28;20041;-78
2023/09/23 08:17:49;;;;;;;19.83;6.68;;;;;;;24.02;44.51;94106.22;5008589;28;20033;-77
2023/09/23 08:20:19;;;;;;;21.05;7.57;;;;;;;24.13;44.47;94107.00;5009696;28;20150;-78
2023/09/23 08:22:49;;;;;;;21.17;6.43;;;;;;;24.06;44.92;94096.13;5009585;28;20187;-78
2023/09/23 08:25:15;;;;;;;13.93;6.85;;;;;;;23.87;44.68;94078.31;5006595;28;20413;-77
2023/09/23 08:27:41;;;;;;;21.55;7.80;;;;;;;24.14;44.11;94096.91;4996464;28;20045;-77
2023/09/23 08:30:10;;;;;;;23.38;7.00;;;;;;;24.22;43.67;94103.88;5007971;28;20029;-78
2023/09/23 08:32:37;;;;;;;23.98;6.57;;;;;;;24.24;43.82;94096.88;5007647;28;20497;-77
2023/09/23 08:35:12;;;;;;;22.27;7.63;;;;;;;24.13;43.57;94098.06;5008244;28;20042;-77
2023/09/23 08:37:37;;;;;;;20.25;5.97;;;;;;;24.21;43.09;94097.66;5008041;28;20568;-77
2023/09/23 08:40:12;;;;;;;28.92;7.80;;;;;;;24.19;44.38;94096.50;5011817;28;20047;-77
2023/09/23 08:42:39;;;;;;;20.92;7.22;;;;;;;24.22;44.14;94101.94;5020019;28;20064;-78
2023/09/23 08:45:16;;;;;;;21.20;6.35;;;;;;;24.17;44.53;94079.81;5011599;28;20063;-79
2023/09/23 08:47:43;;;;;;;33.30;7.45;;;;;;;24.10;43.71;94090.69;5008771;28;20029;-78
2023/09/23 08:50:09;;;;;;;19.00;7.22;;;;;;;24.27;43.98;94096.09;5008593;28;20133;-78
2023/09/23 08:52:35;;;;;;;21.58;7.05;;;;;;;24.39;43.98;94097.63;5011501;28;20204;-78
2023/09/23 08:55:10;;;;;;;17.30;6.65;;;;;;;24.47;44.55;94093.69;5019728;28;20094;-78
2023/09/23 08:57:36;;;;;;;20.88;6.40;;;;;;;24.52;42.94;94084.34;5030056;28;20574;-78
2023/09/23 09:00:07;;;;;;;22.98;7.43;;;;;;;24.57;43.50;94087.44;5030377;28;20059;-77
2023/09/23 09:02:34;;;;;;;16.75;7.35;;;;;;;24.51;43.88;94069.97;5027716;28;20730;-78
2023/09/23 09:05:05;;;;;;;24.88;8.20;;;;;;;24.60;43.56;94089.34;5033556;28;20106;-78
2023/09/23 09:07:38;;;;;;;18.60;7.10;;;;;;;24.52;43.24;94057.16;5019385;28;20048;-78
2023/09/23 09:10:05;;;;;;;19.73;7.43;;;;;;;24.77;43.46;94085.03;5024002;28;20114;-78
2023/09/23 09:12:31;;;;;;;24.40;7.68;;;;;;;24.79;44.04;94080.75;5019639;28;20647;-79
2023/09/23 09:14:56;;;;;;;17.00;6.68;;;;;;;24.80;42.05;94070.63;5011427;28;20037;-79
2023/09/23 09:17:22;;;;;;;14.95;6.05;;;;;;;24.78;42.35;94068.31;5006720;28;20060;-78
2023/09/23 09:19:49;;;;;;;20.17;6.18;;;;;;;24.93;41.19;94068.25;5012636;28;20346;-78
2023/09/23 09:22:16;;;;;;;20.73;6.95;;;;;;;25.00;42.07;94070.91;5009028;28;20052;-78
2023/09/23 09:24:42;;;;;;;21.95;7.43;;;;;;;24.99;42.24;94070.13;5000398;28;20362;-78
2023/09/23 09:27:12;;;;;;;17.08;6.47;;;;;;;24.79;42.07;94034.50;5009786;28;20061;-78
2023/09/23 09:29:41;;;;;;;14.45;6.50;;;;;;;25.08;40.95;94070.47;5005064;28;20033;-78
2023/09/23 09:32:10;;;;;;;16.17;7.70;;;;;;;25.08;40.53;94061.53;5007559;28;20213;-78
2023/09/23 09:34:51;;;;;;;30.83;6.55;;;;;;;25.08;41.24;94067.75;5007922;28;20042;-78
2023/09/23 09:37:23;;;;;;;22.45;7.40;;;;;;;25.12;41.93;94056.84;5010097;28;20042;-78
2023/09/23 09:39:58;;;;;;;25.48;6.80;;;;;;;25.21;42.21;94059.91;5009155;28;20045;-78
2023/09/23 09:42:30;;;;;;;20.92;7.68;;;;;;;25.12;43.01;94035.09;5001273;28;20417;-79
2023/09/23 09:44:57;;;;;;;19.80;7.32;;;;;;;25.16;41.11;94049.44;5004756;28;20038;-76
2023/09/23 09:47:23;;;;;;;19.73;7.93;;;;;;;25.23;41.14;94052.09;5013538;28;20021;-78
2023/09/23 09:49:52;;;;;;;21.35;6.80;;;;;;;25.27;41.72;94052.84;4981659;28;20144;-78
2023/09/23 09:52:22;;;;;;;23.50;7.90;;;;;;;25.31;41.31;94037.28;5008383;28;20052;-79
2023/09/23 09:54:52;;;;;;;24.02;6.70;;;;;;;25.39;40.83;94022.44;5011834;28;20165;-79
2023/09/23 09:57:22;;;;;;;24.52;7.72;;;;;;;25.38;40.37;94026.31;5024575;28;20038;-78
2023/09/23 09:59:50;;;;;;;19.02;6.70;;;;;;;25.40;40.38;94026.72;5004835;28;20025;-78
2023/09/23 10:02:16;;;;;;;26.30;8.18;;;;;;;25.47;40.66;94034.81;5010708;28;20061;-79
2023/09/23 10:04:46;;;;;;;20.85;6.30;;;;;;;25.45;40.22;94025.50;5023252;28;20140;-78
2023/09/23 10:07:24;;;;;;;28.02;6.50;;;;;;;25.66;40.28;94026.06;5032264;28;20047;-79
2023/09/23 10:09:58;;;;;;;20.17;6.53;;;;;;;25.70;41.13;94010.47;5009769;28;20045;-79
2023/09/23 10:12:25;;;;;;;18.33;6.38;;;;;;;25.81;39.26;94025.94;5004588;28;20560;-79
2023/09/23 10:14:57;;;;;;;19.00;5.88;;;;;;;25.84;38.05;94019.69;5009831;28;20044;-78
2023/09/23 10:17:31;;;;;;;17.75;5.85;;;;;;;25.89;37.22;94016.53;5000752;28;20400;-79
2023/09/23 10:19:57;;;;;;;26.95;6.65;;;;;;;25.80;37.12;93997.94;5007558;28;20410;-79
2023/09/23 10:22:23;;;;;;;20.45;6.57;;;;;;;25.76;37.47;93980.84;5008650;28;20045;-79
2023/09/23 10:25:11;;;;;;;19.10;6.72;;;;;;;26.03;37.25;94011.72;5011192;28;20039;-78
2023/09/23 10:27:40;;;;;;;13.75;5.30;;;;;;;26.05;37.87;94001.19;5006841;28;20417;-76
2023/09/23 10:30:09;;;;;;;24.20;5.40;;;;;;;26.14;38.08;94006.16;5012488;28;20029;-78
2023/09/23 10:32:39;;;;;;;19.63;6.20;;;;;;;26.20;37.02;94004.53;5015612;28;20045;-79
2023/09/23 10:35:09;;;;;;;16.42;5.78;;;;;;;26.26;37.33;93996.63;4992830;28;20045;-80
2023/09/23 10:37:35;;;;;;;13.07;6.00;;;;;;;26.25;36.53;93989.66;5012075;28;20580;-79
2023/09/23 10:40:17;;;;;;;24.33;6.05;;;;;;;26.38;37.17;93994.16;4995822;28;20136;-80
2023/09/23 10:42:45;;;;;;;18.20;5.97;;;;;;;26.34;36.50;93989.94;5018639;28;20111;-77
2023/09/23 10:45:13;;;;;;;26.42;7.05;;;;;;;26.26;36.23;93975.59;5004650;28;20040;-78
2023/09/23 10:47:38;;;;;;;26.48;7.18;;;;;;;26.36;35.92;93987.56;5010509;28;20025;-79
2023/09/23 10:50:05;;;;;;;27.88;5.68;;;;;;;26.51;36.43;93984.25;5008096;28;20034;-78
2023/09/23 10:52:32;;;;;;;30.95;6.97;;;;;;;26.55;36.64;93970.56;5011069;28;20032;-78
2023/09/23 10:55:00;;;;;;;21.75;6.53;;;;;;;26.48;35.72;93966.00;5008245;28;20060;-77
2023/09/23 10:57:27;;;;;;;19.58;6.03;;;;;;;26.64;35.97;93970.84;5011481;28;20164;-77
2023/09/23 10:59:53;;;;;;;24.20;5.57;;;;;;;26.69;36.14;93964.91;5007018;28;20060;-79
2023/09/23 11:02:25;;;;;;;18.88;6.80;;;;;;;26.54;35.56;93947.97;5010454;28;20033;-78
2023/09/23 11:04:53;;;;;;;20.10;7.13;;;;;;;26.81;38.39;93960.84;5008089;28;20761;-77
2023/09/23 11:07:20;;;;;;;28.40;5.72;;;;;;;26.73;37.91;93926.69;5014438;28;20046;-78
2023/09/23 11:09:46;;;;;;;23.15;5.72;;;;;;;26.77;35.21;93933.63;5016417;28;20045;-77
2023/09/23 11:12:14;;;;;;;12.60;5.20;;;;;;;26.83;34.98;93939.38;5014434;28;20052;-78
2023/09/23 11:14:45;;;;;;;26.58;5.47;;;;;;;26.94;35.12;93940.75;5006254;28;20053;-78
2023/09/23 11:17:26;;;;;;;24.50;5.88;;;;;;;26.99;34.86;93934.81;5015853;28;20377;-78
2023/09/23 11:19:58;;;;;;;20.27;5.15;;;;;;;27.05;34.71;93929.69;5009349;28;20045;-77
2023/09/23 11:22:24;;;;;;;24.85;6.45;;;;;;;26.96;35.09;93894.72;5016109;28;20509;-77
2023/09/23 11:24:50;;;;;;;26.55;7.03;;;;;;;26.95;34.21;93895.13;5008173;28;20939;-77
2023/09/23 11:27:17;;;;;;;17.30;5.00;;;;;;;27.17;33.92;93923.66;5019555;28;20143;-78